Search for airport 
image banner adimage banner adimage banner ad
image banner ad

KFKL - Venango Rgnl

Located in Franklin, United States

ICAO - FKL, IATA - FKL

Data provided by Airmate  

General information

Coordinates: N41°22'39" W79°51'38"
Elevation is 1540 feet MSL.
Magnetic variation is -10° East
View others Airports in Pennsylvania

Operational data

Special qualification required
Current time UTC:
Current local time:
Weather
METAR: KFKL 091730Z AUTO 08008KT 1SM -SN BR OVC002 00/M01 A2990 RMK AO2 P0005 FZRANO
TAF: KFKL 091601Z 0916/1012 08008KT 5SM RA BR OVC005 TEMPO 0916/0918 2SM -SN OVC004 FM100100 02006KT 4SM -RA BR OVC005 FM100400 36004KT P6SM BKN006 FM100900 29005KT P6SM BKN010
View NOTAMs / SUP AIP / TFR affecting this airport [VIEW]
Communications frequencies: [VIEW]

Runways:

RWY identifierQFULength (ft)Width (ft)SurfaceLDA (ft)
0317°5200150ASPH5200
21197°5200150ASPH5200
12106°3593100ASPH3593
30286°3593100ASPH3593

Airport contact information

Address: Franklin United States

Other aviation service providers

Flight schools

Ravotti Air

Ravotti Air

Satellite view of KFKL